sensor_id;sensor_type;location;lat;lon;timestamp;P1;durP1;ratioP1;P2;durP2;ratioP2
20896;SDS011;10608;42.600;23.398;2023-04-03T00:01:53;13.80;;;13.20;;
20896;SDS011;10608;42.600;23.398;2023-04-03T00:04:18;12.67;;;12.17;;
20896;SDS011;10608;42.600;23.398;2023-04-03T00:06:43;14.27;;;13.67;;
20896;SDS011;10608;42.600;23.398;2023-04-03T00:09:08;14.90;;;14.30;;
20896;SDS011;10608;42.600;23.398;2023-04-03T00:11:33;15.00;;;14.40;;
20896;SDS011;10608;42.600;23.398;2023-04-03T00:13:59;16.53;;;15.93;;
20896;SDS011;10608;42.600;23.398;2023-04-03T00:16:24;13.67;;;13.17;;
20896;SDS011;10608;42.600;23.398;2023-04-03T00:18:50;13.07;;;12.57;;
20896;SDS011;10608;42.600;23.398;2023-04-03T00:21:15;19.60;;;18.80;;
20896;SDS011;10608;42.600;23.398;2023-04-03T00:23:40;22.43;;;21.53;;
20896;SDS011;10608;42.600;23.398;2023-04-03T00:26:06;16.73;;;16.10;;
20896;SDS011;10608;42.600;23.398;2023-04-03T00:28:31;13.90;;;13.30;;
20896;SDS011;10608;42.600;23.398;2023-04-03T00:30:56;15.20;;;14.60;;
20896;SDS011;10608;42.600;23.398;2023-04-03T00:33:22;17.53;;;16.83;;
20896;SDS011;10608;42.600;23.398;2023-04-03T00:35:48;16.63;;;16.03;;
20896;SDS011;10608;42.600;23.398;2023-04-03T00:38:14;14.73;;;14.13;;
20896;SDS011;10608;42.600;23.398;2023-04-03T00:40:42;16.43;;;15.83;;
20896;SDS011;10608;42.600;23.398;2023-04-03T00:43:11;15.27;;;14.67;;
20896;SDS011;10608;42.600;23.398;2023-04-03T00:45:38;16.07;;;15.43;;
20896;SDS011;10608;42.600;23.398;2023-04-03T00:48:05;17.00;;;16.30;;
20896;SDS011;10608;42.600;23.398;2023-04-03T00:50:31;16.67;;;16.07;;
20896;SDS011;10608;42.600;23.398;2023-04-03T00:52:57;16.60;;;15.97;;
20896;SDS011;10608;42.600;23.398;2023-04-03T00:55:23;16.80;;;16.17;;
20896;SDS011;10608;42.600;23.398;2023-04-03T00:57:49;19.57;;;18.77;;
20896;SDS011;10608;42.600;23.398;2023-04-03T01:00:16;17.17;;;16.47;;
20896;SDS011;10608;42.600;23.398;2023-04-03T01:02:42;13.27;;;12.77;;
20896;SDS011;10608;42.600;23.398;2023-04-03T01:05:07;14.90;;;14.30;;
20896;SDS011;10608;42.600;23.398;2023-04-03T01:07:33;15.40;;;14.70;;
20896;SDS011;10608;42.600;23.398;2023-04-03T01:10:02;15.60;;;15.00;;
20896;SDS011;10608;42.600;23.398;2023-04-03T01:12:28;16.10;;;15.50;;
20896;SDS011;10608;42.600;23.398;2023-04-03T01:14:55;17.60;;;16.90;;
20896;SDS011;10608;42.600;23.398;2023-04-03T01:17:37;15.70;;;15.10;;
20896;SDS011;10608;42.600;23.398;2023-04-03T01:22:30;17.33;;;16.63;;
20896;SDS011;10608;42.600;23.398;2023-04-03T01:25:00;16.60;;;15.97;;
20896;SDS011;10608;42.600;23.398;2023-04-03T01:27:25;27.83;;;26.73;;
20896;SDS011;10608;42.600;23.398;2023-04-03T01:29:52;43.93;;;42.13;;
20896;SDS011;10608;42.600;23.398;2023-04-03T01:32:17;21.97;;;21.07;;
20896;SDS011;10608;42.600;23.398;2023-04-03T01:34:42;14.70;;;14.10;;
20896;SDS011;10608;42.600;23.398;2023-04-03T01:37:08;15.30;;;14.70;;
20896;SDS011;10608;42.600;23.398;2023-04-03T01:39:33;17.90;;;17.20;;
20896;SDS011;10608;42.600;23.398;2023-04-03T01:41:58;15.77;;;15.17;;
20896;SDS011;10608;42.600;23.398;2023-04-03T01:44:24;18.27;;;17.57;;
20896;SDS011;10608;42.600;23.398;2023-04-03T01:46:49;18.50;;;17.80;;
20896;SDS011;10608;42.600;23.398;2023-04-03T01:49:14;16.73;;;15.97;;
20896;SDS011;10608;42.600;23.398;2023-04-03T01:51:40;16.23;;;15.63;;
20896;SDS011;10608;42.600;23.398;2023-04-03T01:54:05;15.70;;;15.10;;
20896;SDS011;10608;42.600;23.398;2023-04-03T01:56:30;16.13;;;15.47;;
20896;SDS011;10608;42.600;23.398;2023-04-03T01:58:55;15.13;;;14.53;;
20896;SDS011;10608;42.600;23.398;2023-04-03T02:01:21;15.53;;;14.93;;
20896;SDS011;10608;42.600;23.398;2023-04-03T02:03:46;18.67;;;17.97;;
20896;SDS011;10608;42.600;23.398;2023-04-03T02:06:11;20.13;;;19.33;;
20896;SDS011;10608;42.600;23.398;2023-04-03T02:08:36;16.43;;;15.80;;
20896;SDS011;10608;42.600;23.398;2023-04-03T02:11:02;13.07;;;12.57;;
20896;SDS011;10608;42.600;23.398;2023-04-03T02:13:27;12.20;;;11.70;;
20896;SDS011;10608;42.600;23.398;2023-04-03T02:15:52;12.07;;;11.57;;
20896;SDS011;10608;42.600;23.398;2023-04-03T02:18:18;12.93;;;12.43;;
20896;SDS011;10608;42.600;23.398;2023-04-03T02:20:43;13.37;;;12.87;;
20896;SDS011;10608;42.600;23.398;2023-04-03T02:23:08;13.43;;;12.87;;
20896;SDS011;10608;42.600;23.398;2023-04-03T02:25:34;13.57;;;13.07;;
20896;SDS011;10608;42.600;23.398;2023-04-03T02:27:59;14.70;;;14.10;;
20896;SDS011;10608;42.600;23.398;2023-04-03T02:30:24;13.20;;;12.70;;
20896;SDS011;10608;42.600;23.398;2023-04-03T02:32:50;13.50;;;12.90;;
20896;SDS011;10608;42.600;23.398;2023-04-03T02:35:15;13.43;;;12.93;;
20896;SDS011;10608;42.600;23.398;2023-04-03T02:37:40;13.90;;;13.40;;
20896;SDS011;10608;42.600;23.398;2023-04-03T02:40:06;14.87;;;14.27;;
20896;SDS011;10608;42.600;23.398;2023-04-03T02:42:31;19.10;;;18.17;;
20896;SDS011;10608;42.600;23.398;2023-04-03T02:44:57;19.77;;;18.97;;
20896;SDS011;10608;42.600;23.398;2023-04-03T02:47:22;17.03;;;16.33;;
20896;SDS011;10608;42.600;23.398;2023-04-03T02:49:47;19.33;;;18.57;;
20896;SDS011;10608;42.600;23.398;2023-04-03T02:52:13;18.17;;;17.43;;
20896;SDS011;10608;42.600;23.398;2023-04-03T02:54:38;15.83;;;15.23;;
20896;SDS011;10608;42.600;23.398;2023-04-03T02:57:03;15.20;;;14.50;;
20896;SDS011;10608;42.600;23.398;2023-04-03T02:59:29;15.10;;;14.50;;
20896;SDS011;10608;42.600;23.398;2023-04-03T03:01:54;13.43;;;12.93;;
20896;SDS011;10608;42.600;23.398;2023-04-03T03:04:20;12.60;;;12.10;;
20896;SDS011;10608;42.600;23.398;2023-04-03T03:06:45;13.00;;;12.50;;
20896;SDS011;10608;42.600;23.398;2023-04-03T03:09:11;14.90;;;14.30;;
20896;SDS011;10608;42.600;23.398;2023-04-03T03:11:38;16.73;;;15.93;;
20896;SDS011;10608;42.600;23.398;2023-04-03T03:14:03;17.37;;;16.67;;
20896;SDS011;10608;42.600;23.398;2023-04-03T03:16:28;15.80;;;15.20;;
20896;SDS011;10608;42.600;23.398;2023-04-03T03:18:54;14.83;;;14.23;;
20896;SDS011;10608;42.600;23.398;2023-04-03T03:21:19;15.07;;;14.47;;
20896;SDS011;10608;42.600;23.398;2023-04-03T03:23:44;16.23;;;15.63;;
20896;SDS011;10608;42.600;23.398;2023-04-03T03:26:10;19.13;;;18.40;;
20896;SDS011;10608;42.600;23.398;2023-04-03T03:28:35;17.93;;;17.23;;
20896;SDS011;10608;42.600;23.398;2023-04-03T03:31:02;20.13;;;19.33;;
20896;SDS011;10608;42.600;23.398;2023-04-03T03:33:27;21.17;;;20.37;;
20896;SDS011;10608;42.600;23.398;2023-04-03T03:35:52;18.93;;;18.23;;
20896;SDS011;10608;42.600;23.398;2023-04-03T03:38:18;20.67;;;19.87;;
20896;SDS011;10608;42.600;23.398;2023-04-03T03:40:43;19.43;;;18.67;;
20896;SDS011;10608;42.600;23.398;2023-04-03T03:43:08;18.43;;;17.67;;
20896;SDS011;10608;42.600;23.398;2023-04-03T03:45:33;19.43;;;18.67;;
20896;SDS011;10608;42.600;23.398;2023-04-03T03:47:59;19.07;;;18.33;;
20896;SDS011;10608;42.600;23.398;2023-04-03T03:50:24;19.80;;;19.03;;
20896;SDS011;10608;42.600;23.398;2023-04-03T03:52:49;22.33;;;21.47;;
20896;SDS011;10608;42.600;23.398;2023-04-03T03:55:15;17.43;;;16.73;;
20896;SDS011;10608;42.600;23.398;2023-04-03T03:57:40;19.93;;;19.13;;
20896;SDS011;10608;42.600;23.398;2023-04-03T04:00:06;19.10;;;18.37;;
20896;SDS011;10608;42.600;23.398;2023-04-03T04:02:32;18.83;;;17.97;;
20896;SDS011;10608;42.600;23.398;2023-04-03T04:04:57;15.83;;;15.23;;
20896;SDS011;10608;42.600;23.398;2023-04-03T04:07:22;16.03;;;15.43;;
20896;SDS011;10608;42.600;23.398;2023-04-03T04:09:48;17.80;;;17.10;;
20896;SDS011;10608;42.600;23.398;2023-04-03T04:12:13;18.20;;;17.50;;
20896;SDS011;10608;42.600;23.398;2023-04-03T04:14:38;18.37;;;17.67;;
20896;SDS011;10608;42.600;23.398;2023-04-03T04:17:03;19.23;;;18.30;;
20896;SDS011;10608;42.600;23.398;2023-04-03T04:19:29;17.00;;;16.30;;
20896;SDS011;10608;42.600;23.398;2023-04-03T04:21:54;17.17;;;16.47;;
20896;SDS011;10608;42.600;23.398;2023-04-03T04:24:19;20.00;;;19.20;;
20896;SDS011;10608;42.600;23.398;2023-04-03T04:26:45;23.10;;;22.10;;
20896;SDS011;10608;42.600;23.398;2023-04-03T04:29:10;23.93;;;23.00;;
20896;SDS011;10608;42.600;23.398;2023-04-03T04:31:35;22.17;;;21.27;;
20896;SDS011;10608;42.600;23.398;2023-04-03T04:34:00;21.80;;;20.93;;
20896;SDS011;10608;42.600;23.398;2023-04-03T04:36:26;24.63;;;23.63;;
20896;SDS011;10608;42.600;23.398;2023-04-03T04:38:51;29.83;;;28.63;;
20896;SDS011;10608;42.600;23.398;2023-04-03T04:41:19;24.33;;;23.33;;
20896;SDS011;10608;42.600;23.398;2023-04-03T04:43:46;27.43;;;25.87;;
20896;SDS011;10608;42.600;23.398;2023-04-03T04:46:11;26.83;;;25.77;;
20896;SDS011;10608;42.600;23.398;2023-04-03T04:48:37;26.13;;;25.13;;
20896;SDS011;10608;42.600;23.398;2023-04-03T04:51:03;25.50;;;24.50;;
20896;SDS011;10608;42.600;23.398;2023-04-03T04:53:29;26.03;;;25.03;;
20896;SDS011;10608;42.600;23.398;2023-04-03T04:55:54;25.27;;;24.27;;
20896;SDS011;10608;42.600;23.398;2023-04-03T04:58:20;22.20;;;21.30;;
20896;SDS011;10608;42.600;23.398;2023-04-03T05:00:45;20.80;;;20.00;;
20896;SDS011;10608;42.600;23.398;2023-04-03T05:03:11;21.37;;;20.53;;
20896;SDS011;10608;42.600;23.398;2023-04-03T05:05:36;19.10;;;18.37;;
20896;SDS011;10608;42.600;23.398;2023-04-03T05:08:02;19.13;;;18.33;;
20896;SDS011;10608;42.600;23.398;2023-04-03T05:10:28;16.80;;;16.07;;
20896;SDS011;10608;42.600;23.398;2023-04-03T05:12:53;19.47;;;18.67;;
20896;SDS011;10608;42.600;23.398;2023-04-03T05:15:18;18.63;;;17.87;;
20896;SDS011;10608;42.600;23.398;2023-04-03T05:17:43;23.47;;;22.47;;
20896;SDS011;10608;42.600;23.398;2023-04-03T05:20:09;31.93;;;30.63;;
20896;SDS011;10608;42.600;23.398;2023-04-03T05:22:34;25.70;;;24.60;;
20896;SDS011;10608;42.600;23.398;2023-04-03T05:24:59;17.27;;;16.57;;
20896;SDS011;10608;42.600;23.398;2023-04-03T05:27:25;16.93;;;16.23;;
20896;SDS011;10608;42.600;23.398;2023-04-03T05:29:53;18.60;;;17.80;;
20896;SDS011;10608;42.600;23.398;2023-04-03T05:32:18;29.07;;;27.77;;
20896;SDS011;10608;42.600;23.398;2023-04-03T05:34:43;28.77;;;27.60;;
20896;SDS011;10608;42.600;23.398;2023-04-03T05:37:10;23.40;;;22.50;;
20896;SDS011;10608;42.600;23.398;2023-04-03T05:39:35;20.23;;;19.43;;
20896;SDS011;10608;42.600;23.398;2023-04-03T05:42:00;16.87;;;16.20;;
20896;SDS011;10608;42.600;23.398;2023-04-03T05:44:26;17.30;;;16.60;;
20896;SDS011;10608;42.600;23.398;2023-04-03T05:46:51;17.93;;;17.17;;
20896;SDS011;10608;42.600;23.398;2023-04-03T05:49:16;18.20;;;17.47;;
20896;SDS011;10608;42.600;23.398;2023-04-03T05:51:42;21.87;;;21.00;;
20896;SDS011;10608;42.600;23.398;2023-04-03T05:54:16;25.50;;;24.50;;
20896;SDS011;10608;42.600;23.398;2023-04-03T05:56:42;22.03;;;21.13;;
20896;SDS011;10608;42.600;23.398;2023-04-03T05:59:08;20.30;;;19.50;;
20896;SDS011;10608;42.600;23.398;2023-04-03T06:01:33;17.50;;;16.80;;
20896;SDS011;10608;42.600;23.398;2023-04-03T06:03:59;18.30;;;17.60;;
20896;SDS011;10608;42.600;23.398;2023-04-03T06:06:24;23.47;;;22.47;;
20896;SDS011;10608;42.600;23.398;2023-04-03T06:08:50;23.97;;;22.87;;
20896;SDS011;10608;42.600;23.398;2023-04-03T06:11:15;27.47;;;26.37;;
20896;SDS011;10608;42.600;23.398;2023-04-03T06:13:41;20.87;;;20.07;;
20896;SDS011;10608;42.600;23.398;2023-04-03T06:16:07;25.00;;;24.00;;
20896;SDS011;10608;42.600;23.398;2023-04-03T06:18:34;27.67;;;26.53;;
20896;SDS011;10608;42.600;23.398;2023-04-03T06:21:00;45.00;;;43.13;;
20896;SDS011;10608;42.600;23.398;2023-04-03T06:23:26;24.30;;;23.30;;
20896;SDS011;10608;42.600;23.398;2023-04-03T06:25:51;26.57;;;25.50;;
20896;SDS011;10608;42.600;23.398;2023-04-03T06:28:16;18.07;;;17.20;;
20896;SDS011;10608;42.600;23.398;2023-04-03T06:30:41;20.60;;;19.80;;
20896;SDS011;10608;42.600;23.398;2023-04-03T06:33:07;23.47;;;22.47;;
20896;SDS011;10608;42.600;23.398;2023-04-03T06:35:32;24.37;;;23.33;;
20896;SDS011;10608;42.600;23.398;2023-04-03T06:37:59;15.47;;;14.87;;
20896;SDS011;10608;42.600;23.398;2023-04-03T06:40:25;18.20;;;17.47;;
20896;SDS011;10608;42.600;23.398;2023-04-03T06:42:51;18.17;;;17.47;;
20896;SDS011;10608;42.600;23.398;2023-04-03T06:45:16;18.63;;;17.87;;
20896;SDS011;10608;42.600;23.398;2023-04-03T06:47:42;14.97;;;14.37;;
20896;SDS011;10608;42.600;23.398;2023-04-03T06:50:07;15.97;;;15.33;;
20896;SDS011;10608;42.600;23.398;2023-04-03T06:52:34;12.47;;;11.97;;
20896;SDS011;10608;42.600;23.398;2023-04-03T06:54:59;11.87;;;11.43;;
20896;SDS011;10608;42.600;23.398;2023-04-03T06:57:25;14.47;;;13.90;;
20896;SDS011;10608;42.600;23.398;2023-04-03T06:59:51;11.80;;;11.30;;
20896;SDS011;10608;42.600;23.398;2023-04-03T07:02:16;12.47;;;11.87;;
20896;SDS011;10608;42.600;23.398;2023-04-03T07:04:41;12.53;;;12.03;;
20896;SDS011;10608;42.600;23.398;2023-04-03T07:07:07;11.60;;;11.20;;
20896;SDS011;10608;42.600;23.398;2023-04-03T07:09:32;13.30;;;12.70;;
20896;SDS011;10608;42.600;23.398;2023-04-03T07:11:58;11.27;;;10.77;;
20896;SDS011;10608;42.600;23.398;2023-04-03T07:14:23;11.57;;;10.93;;
20896;SDS011;10608;42.600;23.398;2023-04-03T07:16:48;10.50;;;10.10;;
20896;SDS011;10608;42.600;23.398;2023-04-03T07:19:13;10.30;;;9.90;;
20896;SDS011;10608;42.600;23.398;2023-04-03T07:21:39;12.03;;;11.53;;
20896;SDS011;10608;42.600;23.398;2023-04-03T07:24:05;12.80;;;12.30;;
20896;SDS011;10608;42.600;23.398;2023-04-03T07:26:30;9.97;;;9.57;;
20896;SDS011;10608;42.600;23.398;2023-04-03T07:28:56;10.03;;;9.57;;
20896;SDS011;10608;42.600;23.398;2023-04-03T07:31:22;10.70;;;10.30;;
20896;SDS011;10608;42.600;23.398;2023-04-03T07:33:47;10.30;;;9.90;;
20896;SDS011;10608;42.600;23.398;2023-04-03T07:36:18;12.27;;;11.77;;
20896;SDS011;10608;42.600;23.398;2023-04-03T07:38:44;15.63;;;15.03;;
20896;SDS011;10608;42.600;23.398;2023-04-03T07:41:17;11.40;;;11.00;;
20896;SDS011;10608;42.600;23.398;2023-04-03T07:43:43;13.07;;;12.57;;
20896;SDS011;10608;42.600;23.398;2023-04-03T07:46:08;11.23;;;10.80;;
20896;SDS011;10608;42.600;23.398;2023-04-03T07:48:34;20.50;;;19.67;;
20896;SDS011;10608;42.600;23.398;2023-04-03T07:51:00;12.53;;;12.03;;
20896;SDS011;10608;42.600;23.398;2023-04-03T07:53:26;17.73;;;17.03;;
20896;SDS011;10608;42.600;23.398;2023-04-03T07:55:51;16.23;;;15.60;;
20896;SDS011;10608;42.600;23.398;2023-04-03T07:58:20;22.17;;;21.27;;
20896;SDS011;10608;42.600;23.398;2023-04-03T08:00:46;22.10;;;21.17;;
20896;SDS011;10608;42.600;23.398;2023-04-03T08:03:11;29.77;;;27.47;;
20896;SDS011;10608;42.600;23.398;2023-04-03T08:05:38;25.53;;;24.53;;
20896;SDS011;10608;42.600;23.398;2023-04-03T08:08:04;11.17;;;10.77;;
20896;SDS011;10608;42.600;23.398;2023-04-03T08:10:29;13.23;;;12.73;;
20896;SDS011;10608;42.600;23.398;2023-04-03T08:12:55;23.13;;;22.17;;
20896;SDS011;10608;42.600;23.398;2023-04-03T08:15:20;26.83;;;25.70;;
20896;SDS011;10608;42.600;23.398;2023-04-03T08:17:45;24.83;;;23.83;;
20896;SDS011;10608;42.600;23.398;2023-04-03T08:20:11;22.23;;;21.33;;
20896;SDS011;10608;42.600;23.398;2023-04-03T08:22:36;19.03;;;18.23;;
20896;SDS011;10608;42.600;23.398;2023-04-03T08:25:02;20.63;;;19.83;;
20896;SDS011;10608;42.600;23.398;2023-04-03T08:27:27;18.40;;;17.70;;
20896;SDS011;10608;42.600;23.398;2023-04-03T08:29:53;16.33;;;15.63;;
20896;SDS011;10608;42.600;23.398;2023-04-03T08:32:18;14.33;;;13.73;;
20896;SDS011;10608;42.600;23.398;2023-04-03T08:34:44;16.17;;;15.47;;
20896;SDS011;10608;42.600;23.398;2023-04-03T08:37:09;13.83;;;13.13;;
20896;SDS011;10608;42.600;23.398;2023-04-03T08:39:34;14.87;;;14.27;;
20896;SDS011;10608;42.600;23.398;2023-04-03T08:42:02;24.90;;;23.77;;
20896;SDS011;10608;42.600;23.398;2023-04-03T08:44:34;12.57;;;12.07;;
20896;SDS011;10608;42.600;23.398;2023-04-03T08:47:18;11.33;;;10.80;;
20896;SDS011;10608;42.600;23.398;2023-04-03T08:49:49;14.87;;;14.27;;
20896;SDS011;10608;42.600;23.398;2023-04-03T08:52:22;36.47;;;34.97;;
20896;SDS011;10608;42.600;23.398;2023-04-03T08:57:16;26.93;;;25.83;;
20896;SDS011;10608;42.600;23.398;2023-04-03T08:59:42;21.80;;;20.87;;
20896;SDS011;10608;42.600;23.398;2023-04-03T09:02:17;25.20;;;24.17;;
20896;SDS011;10608;42.600;23.398;2023-04-03T09:04:45;19.63;;;18.73;;
20896;SDS011;10608;42.600;23.398;2023-04-03T09:07:13;24.10;;;23.10;;
20896;SDS011;10608;42.600;23.398;2023-04-03T09:09:42;12.03;;;11.33;;
20896;SDS011;10608;42.600;23.398;2023-04-03T09:12:17;13.43;;;12.90;;
20896;SDS011;10608;42.600;23.398;2023-04-03T09:22:24;27.23;;;26.13;;
20896;SDS011;10608;42.600;23.398;2023-04-03T09:24:51;27.93;;;26.83;;
20896;SDS011;10608;42.600;23.398;2023-04-03T09:27:17;10.77;;;10.37;;
20896;SDS011;10608;42.600;23.398;2023-04-03T09:29:43;9.13;;;8.80;;
20896;SDS011;10608;42.600;23.398;2023-04-03T09:32:21;11.87;;;11.40;;
20896;SDS011;10608;42.600;23.398;2023-04-03T09:34:47;12.30;;;11.80;;
20896;SDS011;10608;42.600;23.398;2023-04-03T09:37:32;10.77;;;10.37;;
20896;SDS011;10608;42.600;23.398;2023-04-03T09:39:58;10.77;;;10.37;;
20896;SDS011;10608;42.600;23.398;2023-04-03T09:42:25;11.77;;;11.27;;
20896;SDS011;10608;42.600;23.398;2023-04-03T09:44:56;11.37;;;10.97;;
20896;SDS011;10608;42.600;23.398;2023-04-03T09:49:47;17.37;;;16.67;;
20896;SDS011;10608;42.600;23.398;2023-04-03T09:52:23;16.60;;;16.00;;
20896;SDS011;10608;42.600;23.398;2023-04-03T09:54:49;27.20;;;26.10;;
20896;SDS011;10608;42.600;23.398;2023-04-03T09:57:14;35.60;;;34.17;;
20896;SDS011;10608;42.600;23.398;2023-04-03T09:59:58;36.03;;;34.57;;
20896;SDS011;10608;42.600;23.398;2023-04-03T10:02:32;30.97;;;29.73;;
20896;SDS011;10608;42.600;23.398;2023-04-03T10:04:59;22.53;;;21.63;;
20896;SDS011;10608;42.600;23.398;2023-04-03T10:09:56;11.63;;;11.20;;
20896;SDS011;10608;42.600;23.398;2023-04-03T10:12:22;11.60;;;11.10;;
20896;SDS011;10608;42.600;23.398;2023-04-03T10:19:55;23.47;;;22.57;;
20896;SDS011;10608;42.600;23.398;2023-04-03T10:30:19;27.83;;;26.73;;
20896;SDS011;10608;42.600;23.398;2023-04-03T10:38:09;12.33;;;11.83;;
20896;SDS011;10608;42.600;23.398;2023-04-03T10:53:24;32.90;;;31.57;;
20896;SDS011;10608;42.600;23.398;2023-04-03T10:58:36;60.67;;;58.17;;
20896;SDS011;10608;42.600;23.398;2023-04-03T11:01:08;25.40;;;24.40;;
20896;SDS011;10608;42.600;23.398;2023-04-03T11:03:36;13.07;;;12.57;;
20896;SDS011;10608;42.600;23.398;2023-04-03T11:06:05;12.53;;;12.03;;
20896;SDS011;10608;42.600;23.398;2023-04-03T11:08:34;18.17;;;17.37;;
20896;SDS011;10608;42.600;23.398;2023-04-03T11:11:05;18.17;;;17.47;;
20896;SDS011;10608;42.600;23.398;2023-04-03T11:13:35;9.70;;;9.30;;
20896;SDS011;10608;42.600;23.398;2023-04-03T11:16:02;9.10;;;8.80;;
20896;SDS011;10608;42.600;23.398;2023-04-03T11:18:32;9.20;;;8.90;;
20896;SDS011;10608;42.600;23.398;2023-04-03T11:21:12;11.77;;;11.27;;
20896;SDS011;10608;42.600;23.398;2023-04-03T11:23:39;12.43;;;11.93;;
20896;SDS011;10608;42.600;23.398;2023-04-03T11:26:12;10.63;;;10.23;;
20896;SDS011;10608;42.600;23.398;2023-04-03T11:28:38;15.80;;;15.17;;
20896;SDS011;10608;42.600;23.398;2023-04-03T11:33:36;11.77;;;11.30;;
20896;SDS011;10608;42.600;23.398;2023-04-03T11:38:46;14.67;;;14.07;;
20896;SDS011;10608;42.600;23.398;2023-04-03T11:41:25;12.80;;;12.30;;
20896;SDS011;10608;42.600;23.398;2023-04-03T11:52:10;14.50;;;13.90;;
20896;SDS011;10608;42.600;23.398;2023-04-03T11:54:45;17.13;;;16.47;;
20896;SDS011;10608;42.600;23.398;2023-04-03T12:02:52;16.80;;;16.10;;
20896;SDS011;10608;42.600;23.398;2023-04-03T12:05:28;18.27;;;17.57;;
20896;SDS011;10608;42.600;23.398;2023-04-03T12:10:38;18.10;;;16.77;;
20896;SDS011;10608;42.600;23.398;2023-04-03T12:13:12;24.00;;;23.03;;
20896;SDS011;10608;42.600;23.398;2023-04-03T12:23:36;44.73;;;42.80;;
20896;SDS011;10608;42.600;23.398;2023-04-03T12:26:19;29.93;;;28.63;;
20896;SDS011;10608;42.600;23.398;2023-04-03T12:28:46;28.43;;;27.27;;
20896;SDS011;10608;42.600;23.398;2023-04-03T12:31:13;23.27;;;22.37;;
20896;SDS011;10608;42.600;23.398;2023-04-03T12:36:11;44.03;;;42.17;;
20896;SDS011;10608;42.600;23.398;2023-04-03T12:46:24;30.40;;;29.10;;
20896;SDS011;10608;42.600;23.398;2023-04-03T12:48:52;26.30;;;25.20;;
20896;SDS011;10608;42.600;23.398;2023-04-03T12:51:22;22.90;;;22.00;;
20896;SDS011;10608;42.600;23.398;2023-04-03T12:53:51;34.57;;;33.17;;
20896;SDS011;10608;42.600;23.398;2023-04-03T12:56:25;60.47;;;57.90;;
20896;SDS011;10608;42.600;23.398;2023-04-03T12:58:51;55.40;;;53.00;;
20896;SDS011;10608;42.600;23.398;2023-04-03T13:01:18;39.83;;;38.23;;
20896;SDS011;10608;42.600;23.398;2023-04-03T13:03:47;29.07;;;27.87;;
20896;SDS011;10608;42.600;23.398;2023-04-03T13:06:20;27.10;;;25.97;;
20896;SDS011;10608;42.600;23.398;2023-04-03T13:08:56;23.30;;;22.40;;
20896;SDS011;10608;42.600;23.398;2023-04-03T13:11:23;25.37;;;24.17;;
20896;SDS011;10608;42.600;23.398;2023-04-03T13:13:56;22.47;;;21.57;;
20896;SDS011;10608;42.600;23.398;2023-04-03T13:16:21;18.30;;;17.60;;
20896;SDS011;10608;42.600;23.398;2023-04-03T13:18:50;21.20;;;20.30;;
20896;SDS011;10608;42.600;23.398;2023-04-03T13:21:19;22.50;;;21.60;;
20896;SDS011;10608;42.600;23.398;2023-04-03T13:23:48;26.00;;;25.00;;
20896;SDS011;10608;42.600;23.398;2023-04-03T13:26:15;27.67;;;26.57;;
20896;SDS011;10608;42.600;23.398;2023-04-03T13:28:41;23.37;;;22.47;;
20896;SDS011;10608;42.600;23.398;2023-04-03T13:33:33;38.83;;;37.23;;
20896;SDS011;10608;42.600;23.398;2023-04-03T13:36:21;54.00;;;51.80;;
20896;SDS011;10608;42.600;23.398;2023-04-03T13:41:34;54.17;;;51.93;;
20896;SDS011;10608;42.600;23.398;2023-04-03T13:46:40;53.60;;;51.33;;
20896;SDS011;10608;42.600;23.398;2023-04-03T13:49:16;40.27;;;38.63;;
20896;SDS011;10608;42.600;23.398;2023-04-03T13:51:42;49.13;;;47.10;;
20896;SDS011;10608;42.600;23.398;2023-04-03T13:54:19;50.50;;;48.43;;
20896;SDS011;10608;42.600;23.398;2023-04-03T13:56:45;33.37;;;32.03;;
20896;SDS011;10608;42.600;23.398;2023-04-03T14:01:49;34.87;;;33.47;;
20896;SDS011;10608;42.600;23.398;2023-04-03T14:04:17;25.20;;;24.20;;
20896;SDS011;10608;42.600;23.398;2023-04-03T14:06:43;34.07;;;32.67;;
20896;SDS011;10608;42.600;23.398;2023-04-03T14:09:08;32.67;;;31.37;;
20896;SDS011;10608;42.600;23.398;2023-04-03T14:11:34;45.80;;;43.90;;
20896;SDS011;10608;42.600;23.398;2023-04-03T14:14:05;43.87;;;42.03;;
20896;SDS011;10608;42.600;23.398;2023-04-03T14:16:31;37.40;;;35.83;;
20896;SDS011;10608;42.600;23.398;2023-04-03T14:18:57;36.20;;;34.70;;
20896;SDS011;10608;42.600;23.398;2023-04-03T14:21:22;43.80;;;41.87;;
20896;SDS011;10608;42.600;23.398;2023-04-03T14:23:48;45.73;;;43.77;;
20896;SDS011;10608;42.600;23.398;2023-04-03T14:26:14;37.83;;;35.97;;
20896;SDS011;10608;42.600;23.398;2023-04-03T14:28:41;32.50;;;31.20;;
20896;SDS011;10608;42.600;23.398;2023-04-03T14:31:09;52.73;;;50.43;;
20896;SDS011;10608;42.600;23.398;2023-04-03T14:33:35;60.07;;;57.13;;
20896;SDS011;10608;42.600;23.398;2023-04-03T14:36:01;48.80;;;46.70;;
20896;SDS011;10608;42.600;23.398;2023-04-03T14:38:29;52.10;;;49.67;;
20896;SDS011;10608;42.600;23.398;2023-04-03T14:40:55;51.90;;;49.70;;
20896;SDS011;10608;42.600;23.398;2023-04-03T14:43:20;49.20;;;47.13;;
20896;SDS011;10608;42.600;23.398;2023-04-03T14:45:49;44.60;;;42.77;;
20896;SDS011;10608;42.600;23.398;2023-04-03T14:48:16;27.43;;;26.33;;
20896;SDS011;10608;42.600;23.398;2023-04-03T14:50:42;36.97;;;35.43;;
20896;SDS011;10608;42.600;23.398;2023-04-03T14:53:07;41.30;;;39.60;;
20896;SDS011;10608;42.600;23.398;2023-04-03T14:55:32;37.27;;;35.73;;
20896;SDS011;10608;42.600;23.398;2023-04-03T14:57:58;40.63;;;38.87;;
20896;SDS011;10608;42.600;23.398;2023-04-03T15:00:23;66.37;;;63.50;;
20896;SDS011;10608;42.600;23.398;2023-04-03T15:02:48;63.57;;;60.87;;
20896;SDS011;10608;42.600;23.398;2023-04-03T15:05:14;50.17;;;47.97;;
20896;SDS011;10608;42.600;23.398;2023-04-03T15:07:41;58.80;;;56.37;;
20896;SDS011;10608;42.600;23.398;2023-04-03T15:10:28;71.63;;;68.60;;
20896;SDS011;10608;42.600;23.398;2023-04-03T15:12:52;60.37;;;57.83;;
20896;SDS011;10608;42.600;23.398;2023-04-03T15:15:18;42.27;;;40.53;;
20896;SDS011;10608;42.600;23.398;2023-04-03T15:17:45;44.40;;;42.53;;
20896;SDS011;10608;42.600;23.398;2023-04-03T15:20:17;47.57;;;45.57;;
20896;SDS011;10608;42.600;23.398;2023-04-03T15:22:43;71.67;;;68.57;;
20896;SDS011;10608;42.600;23.398;2023-04-03T15:25:09;58.50;;;56.10;;
20896;SDS011;10608;42.600;23.398;2023-04-03T15:27:35;57.07;;;54.70;;
20896;SDS011;10608;42.600;23.398;2023-04-03T15:30:00;68.93;;;66.07;;
20896;SDS011;10608;42.600;23.398;2023-04-03T15:32:25;69.83;;;66.93;;
20896;SDS011;10608;42.600;23.398;2023-04-03T15:34:51;73.70;;;70.60;;
20896;SDS011;10608;42.600;23.398;2023-04-03T15:37:16;81.57;;;78.17;;
20896;SDS011;10608;42.600;23.398;2023-04-03T15:39:41;76.93;;;73.77;;
20896;SDS011;10608;42.600;23.398;2023-04-03T15:42:06;55.77;;;53.43;;
20896;SDS011;10608;42.600;23.398;2023-04-03T15:44:33;47.73;;;45.77;;
20896;SDS011;10608;42.600;23.398;2023-04-03T15:46:58;43.40;;;41.60;;
20896;SDS011;10608;42.600;23.398;2023-04-03T15:49:24;54.30;;;52.00;;